Time;durP1;ratioP1;P1;durP2;ratioP2;P2;SDS_P1;SDS_P2;PMS_P1;PMS_P2;Temp;Humidity;BMP_temperature;BMP_pressure;BME280_temperature;BME280_humidity;BME280_pressure;Samples;Min_cycle;Max_cycle;Signal;HPM_P1;HPM_P2
2022/07/14 00:02:06;;;;;;;;;;;26.50;46.90;;;;;;4999734;28;20341;-62
2022/07/14 00:04:32;;;;;;;;;;;26.50;46.90;;;;;;4999419;28;19910;-64
2022/07/14 00:06:57;;;;;;;;;;;26.50;46.90;;;;;;4998138;28;19913;-62
2022/07/14 00:09:23;;;;;;;;;;;26.50;46.90;;;;;;4997736;28;19929;-63
2022/07/14 00:11:48;;;;;;;;;;;26.40;46.80;;;;;;5001720;28;19941;-64
2022/07/14 00:14:14;;;;;;;;;;;26.40;46.90;;;;;;4999433;28;19909;-64
2022/07/14 00:16:40;;;;;;;;;;;26.40;46.80;;;;;;4999776;28;20293;-64
2022/07/14 00:19:05;;;;;;;;;;;26.40;46.90;;;;;;4998437;28;19909;-67
2022/07/14 00:21:31;;;;;;;;;;;26.40;46.90;;;;;;4998812;28;20479;-62
2022/07/14 00:23:56;;;;;;;;;;;26.40;46.90;;;;;;4999615;28;19936;-63
2022/07/14 00:26:22;;;;;;;;;;;26.40;46.90;;;;;;5014915;28;20048;-67
2022/07/14 00:28:47;;;;;;;;;;;26.40;46.90;;;;;;4998759;28;19913;-65
2022/07/14 00:31:13;;;;;;;;;;;26.40;46.90;;;;;;4999268;28;19921;-65
2022/07/14 00:33:39;;;;;;;;;;;26.40;46.90;;;;;;4999920;28;20004;-64
2022/07/14 00:36:06;;;;;;;;;;;26.40;46.90;;;;;;4999608;28;19913;-67
2022/07/14 00:38:31;;;;;;;;;;;26.40;46.90;;;;;;4996883;28;20258;-63
2022/07/14 00:40:57;;;;;;;;;;;26.40;46.90;;;;;;4999559;28;19909;-66
2022/07/14 00:43:22;;;;;;;;;;;26.40;46.90;;;;;;4998985;28;19917;-67
2022/07/14 00:45:48;;;;;;;;;;;26.40;46.80;;;;;;4998876;28;20348;-64
2022/07/14 00:48:14;;;;;;;;;;;26.40;46.90;;;;;;4997700;28;20366;-62
2022/07/14 00:50:44;;;;;;;;;;;26.40;46.80;;;;;;4998514;28;19909;-64
2022/07/14 00:53:10;;;;;;;;;;;26.40;46.90;;;;;;4996620;28;19943;-67
2022/07/14 00:55:36;;;;;;;;;;;26.40;46.90;;;;;;5015189;28;20030;-65
2022/07/14 00:58:02;;;;;;;;;;;26.40;46.80;;;;;;4996926;28;19956;-64
2022/07/14 01:00:28;;;;;;;;;;;26.30;46.80;;;;;;4998284;28;20002;-66
2022/07/14 01:02:54;;;;;;;;;;;26.30;46.80;;;;;;4997548;28;19975;-67
2022/07/14 01:05:19;;;;;;;;;;;26.40;46.90;;;;;;4997563;28;20321;-64
2022/07/14 01:07:47;;;;;;;;;;;26.30;46.80;;;;;;4996941;28;19968;-64
2022/07/14 01:10:12;;;;;;;;;;;26.30;46.80;;;;;;4997959;28;19916;-61
2022/07/14 01:12:38;;;;;;;;;;;26.30;46.80;;;;;;4999642;28;20979;-64
2022/07/14 01:15:04;;;;;;;;;;;26.30;46.80;;;;;;4998642;28;20001;-66
2022/07/14 01:17:30;;;;;;;;;;;26.30;46.80;;;;;;4998429;28;20472;-66
2022/07/14 01:19:55;;;;;;;;;;;26.30;46.80;;;;;;4998142;28;20362;-66
2022/07/14 01:22:21;;;;;;;;;;;26.30;46.80;;;;;;4999378;28;19917;-66
2022/07/14 01:24:46;;;;;;;;;;;26.30;46.80;;;;;;4998290;28;19932;-64
2022/07/14 01:27:12;;;;;;;;;;;26.30;46.80;;;;;;4997756;28;19914;-63
2022/07/14 01:29:38;;;;;;;;;;;26.30;46.80;;;;;;4999856;28;19920;-66
2022/07/14 01:32:04;;;;;;;;;;;26.30;46.80;;;;;;4998263;28;20246;-62
2022/07/14 01:34:29;;;;;;;;;;;26.30;46.80;;;;;;4997306;28;20092;-63
2022/07/14 01:36:55;;;;;;;;;;;26.30;46.80;;;;;;4996435;28;19922;-63
2022/07/14 01:39:20;;;;;;;;;;;26.30;46.80;;;;;;4998117;28;19952;-63
2022/07/14 01:41:46;;;;;;;;;;;26.30;46.80;;;;;;4998380;28;19994;-63
2022/07/14 01:44:11;;;;;;;;;;;26.30;46.80;;;;;;4999735;28;19913;-63
2022/07/14 01:46:37;;;;;;;;;;;26.30;46.80;;;;;;4999903;28;20344;-64
2022/07/14 01:49:04;;;;;;;;;;;26.30;46.90;;;;;;4996996;28;19979;-65
2022/07/14 01:51:29;;;;;;;;;;;26.30;46.80;;;;;;4996727;28;20000;-67
2022/07/14 01:53:55;;;;;;;;;;;26.30;46.80;;;;;;4998088;28;20401;-66
2022/07/14 01:56:22;;;;;;;;;;;26.30;46.90;;;;;;4997191;28;19916;-64
2022/07/14 01:58:47;;;;;;;;;;;26.20;46.80;;;;;;4997664;28;19912;-62
2022/07/14 02:03:59;;;;;;;;;;;26.20;46.80;;;;;;4995105;28;20021;-64
2022/07/14 02:06:24;;;;;;;;;;;26.20;46.80;;;;;;4993528;28;20257;-66
2022/07/14 02:08:50;;;;;;;;;;;26.20;46.80;;;;;;4997283;28;19935;-62
2022/07/14 02:14:01;;;;;;;;;;;26.20;46.80;;;;;;4996211;28;20036;-64
2022/07/14 02:16:27;;;;;;;;;;;26.20;46.80;;;;;;4997743;28;20425;-65
2022/07/14 02:18:52;;;;;;;;;;;26.20;46.80;;;;;;4996727;28;19920;-63
2022/07/14 02:21:18;;;;;;;;;;;26.20;46.90;;;;;;4994749;28;20349;-65
2022/07/14 02:23:44;;;;;;;;;;;26.20;46.90;;;;;;4996358;28;19921;-63
2022/07/14 02:26:10;;;;;;;;;;;26.20;46.90;;;;;;4999704;28;19935;-66
2022/07/14 02:28:36;;;;;;;;;;;26.20;46.90;;;;;;5002329;28;20000;-63
2022/07/14 02:31:01;;;;;;;;;;;26.20;46.90;;;;;;5001935;28;20068;-63
2022/07/14 02:33:27;;;;;;;;;;;26.10;46.80;;;;;;5000113;28;19920;-63
2022/07/14 02:35:52;;;;;;;;;;;26.20;46.90;;;;;;5001781;28;20013;-63
2022/07/14 02:38:17;;;;;;;;;;;26.10;46.80;;;;;;5001260;28;19965;-66
2022/07/14 02:40:43;;;;;;;;;;;26.20;46.90;;;;;;5001601;28;19924;-66
2022/07/14 02:43:08;;;;;;;;;;;26.10;46.80;;;;;;5002036;28;19920;-62
2022/07/14 02:45:34;;;;;;;;;;;26.20;46.90;;;;;;5002264;28;19928;-63
2022/07/14 02:47:59;;;;;;;;;;;26.10;46.80;;;;;;5001499;28;19914;-61
2022/07/14 02:50:25;;;;;;;;;;;26.10;46.90;;;;;;4999708;28;20028;-60
2022/07/14 02:52:50;;;;;;;;;;;26.10;46.80;;;;;;4999619;28;19925;-63
2022/07/14 02:55:16;;;;;;;;;;;26.10;46.90;;;;;;5000952;28;19910;-64
2022/07/14 02:57:41;;;;;;;;;;;26.10;46.80;;;;;;5001011;28;20143;-63
2022/07/14 03:00:08;;;;;;;;;;;26.10;46.90;;;;;;4999228;28;19916;-64
2022/07/14 03:02:34;;;;;;;;;;;26.10;46.80;;;;;;5000343;28;19924;-65
2022/07/14 03:04:59;;;;;;;;;;;26.10;46.90;;;;;;5014424;28;19917;-64
2022/07/14 03:07:25;;;;;;;;;;;26.10;46.80;;;;;;4999296;28;19933;-63
2022/07/14 03:09:50;;;;;;;;;;;26.10;46.90;;;;;;5000576;28;21294;-63
2022/07/14 03:12:16;;;;;;;;;;;26.00;46.80;;;;;;5002707;28;19910;-64
2022/07/14 03:14:41;;;;;;;;;;;26.10;46.90;;;;;;5001654;28;19921;-63
2022/07/14 03:17:07;;;;;;;;;;;26.10;46.90;;;;;;4999607;28;19917;-63
2022/07/14 03:19:32;;;;;;;;;;;26.00;46.90;;;;;;5001141;28;19914;-64
2022/07/14 03:21:58;;;;;;;;;;;26.00;46.90;;;;;;4998268;28;20299;-63
2022/07/14 03:24:24;;;;;;;;;;;26.10;46.90;;;;;;4998956;28;21138;-63
2022/07/14 03:26:49;;;;;;;;;;;26.00;46.80;;;;;;4999890;28;20333;-63
2022/07/14 03:29:15;;;;;;;;;;;25.90;44.80;;;;;;5001345;28;20000;-63
2022/07/14 03:31:40;;;;;;;;;;;25.60;44.60;;;;;;4997740;28;20461;-65
2022/07/14 03:34:06;;;;;;;;;;;25.50;44.60;;;;;;4999486;28;19918;-64
2022/07/14 03:36:31;;;;;;;;;;;25.40;44.60;;;;;;4998714;28;19948;-62
2022/07/14 03:38:57;;;;;;;;;;;25.40;44.60;;;;;;5001366;28;19909;-65
2022/07/14 03:41:22;;;;;;;;;;;25.30;44.60;;;;;;4998387;28;20328;-65
2022/07/14 03:43:48;;;;;;;;;;;25.30;45.30;;;;;;4999796;28;19913;-65
2022/07/14 03:46:13;;;;;;;;;;;25.40;45.20;;;;;;5000635;28;19964;-66
2022/07/14 03:48:39;;;;;;;;;;;25.40;45.10;;;;;;4999020;28;19909;-65
2022/07/14 03:51:05;;;;;;;;;;;25.50;44.50;;;;;;5000128;28;19906;-65
2022/07/14 03:53:30;;;;;;;;;;;25.40;44.80;;;;;;4998597;28;19913;-66
2022/07/14 03:55:56;;;;;;;;;;;25.40;44.10;;;;;;5000101;28;19909;-64
2022/07/14 03:58:22;;;;;;;;;;;25.40;44.20;;;;;;5000418;28;19939;-68
2022/07/14 04:00:47;;;;;;;;;;;25.30;44.10;;;;;;4997661;28;20354;-65
2022/07/14 04:03:13;;;;;;;;;;;25.40;44.20;;;;;;4998090;28;19917;-64
2022/07/14 04:05:38;;;;;;;;;;;25.30;44.20;;;;;;5014079;28;19909;-63
2022/07/14 04:08:04;;;;;;;;;;;25.30;44.20;;;;;;4995940;28;20272;-66
2022/07/14 04:10:29;;;;;;;;;;;25.30;44.30;;;;;;4999794;28;19937;-62
2022/07/14 04:12:56;;;;;;;;;;;25.30;44.50;;;;;;4999719;28;19909;-65
2022/07/14 04:15:23;;;;;;;;;;;25.20;44.60;;;;;;5000384;28;19914;-67
2022/07/14 04:17:48;;;;;;;;;;;25.20;45.00;;;;;;5000447;28;19913;-66
2022/07/14 04:20:14;;;;;;;;;;;25.10;45.20;;;;;;4999165;28;20297;-63
2022/07/14 04:22:39;;;;;;;;;;;25.20;45.30;;;;;;4999786;28;20007;-66
2022/07/14 04:25:05;;;;;;;;;;;25.20;45.30;;;;;;4998673;28;19913;-63
2022/07/14 04:27:31;;;;;;;;;;;25.20;45.20;;;;;;4999696;28;19909;-63
2022/07/14 04:29:56;;;;;;;;;;;25.20;45.10;;;;;;4999380;28;19983;-60
2022/07/14 04:32:22;;;;;;;;;;;25.10;45.10;;;;;;4999096;28;19968;-67
2022/07/14 04:34:47;;;;;;;;;;;25.10;45.10;;;;;;4999218;28;19909;-60
2022/07/14 04:37:13;;;;;;;;;;;25.10;45.70;;;;;;4997752;28;19933;-62
2022/07/14 04:39:38;;;;;;;;;;;25.10;45.30;;;;;;4999425;28;20027;-66
2022/07/14 04:42:04;;;;;;;;;;;25.10;45.20;;;;;;4998012;28;19916;-64
2022/07/14 04:44:29;;;;;;;;;;;25.10;45.30;;;;;;4999657;28;19920;-66
2022/07/14 04:46:55;;;;;;;;;;;25.00;45.30;;;;;;4999221;28;19910;-66
2022/07/14 04:52:05;;;;;;;;;;;25.10;45.20;;;;;;4997571;28;19959;-64
2022/07/14 04:54:32;;;;;;;;;;;25.10;45.20;;;;;;4997267;28;19964;-65
2022/07/14 04:56:58;;;;;;;;;;;25.10;45.30;;;;;;4997638;28;20262;-65
2022/07/14 04:59:23;;;;;;;;;;;25.00;45.50;;;;;;4998004;28;19928;-63
2022/07/14 05:01:49;;;;;;;;;;;25.00;45.40;;;;;;4998060;28;19924;-64
2022/07/14 05:04:14;;;;;;;;;;;24.90;45.10;;;;;;4998422;28;21344;-63
2022/07/14 05:06:40;;;;;;;;;;;24.80;45.00;;;;;;4998074;28;20282;-63
2022/07/14 05:09:05;;;;;;;;;;;24.70;45.40;;;;;;4994524;28;20389;-62
2022/07/14 05:11:31;;;;;;;;;;;24.70;45.70;;;;;;4998230;28;19979;-60
2022/07/14 05:13:56;;;;;;;;;;;24.80;45.70;;;;;;4998711;28;19991;-60
2022/07/14 05:16:22;;;;;;;;;;;24.90;45.90;;;;;;4994381;28;19967;-61
2022/07/14 05:18:47;;;;;;;;;;;24.90;45.60;;;;;;4998934;28;20369;-61
2022/07/14 05:21:13;;;;;;;;;;;25.00;45.50;;;;;;4996686;28;19922;-63
2022/07/14 05:23:39;;;;;;;;;;;25.10;45.50;;;;;;4997721;28;19913;-60
2022/07/14 05:26:13;;;;;;;;;;;25.10;45.40;;;;;;4999677;28;20318;-63
2022/07/14 05:28:39;;;;;;;;;;;25.10;45.40;;;;;;4999993;28;20389;-63
2022/07/14 05:31:05;;;;;;;;;;;25.20;45.40;;;;;;4997345;28;19921;-63
2022/07/14 05:33:30;;;;;;;;;;;25.20;45.30;;;;;;4998363;28;21016;-63
2022/07/14 05:35:56;;;;;;;;;;;25.20;45.30;;;;;;4999343;28;20262;-62
2022/07/14 05:38:22;;;;;;;;;;;25.30;45.30;;;;;;4997746;28;20518;-62
2022/07/14 05:40:47;;;;;;;;;;;25.30;45.30;;;;;;5000035;28;19909;-63
2022/07/14 05:43:13;;;;;;;;;;;25.30;45.30;;;;;;4996506;28;20358;-64
2022/07/14 05:45:39;;;;;;;;;;;25.40;45.30;;;;;;4998979;28;19960;-61
2022/07/14 05:48:05;;;;;;;;;;;25.40;45.30;;;;;;4997416;28;19979;-63
2022/07/14 05:50:30;;;;;;;;;;;25.40;45.20;;;;;;4997179;28;19913;-63
2022/07/14 05:52:56;;;;;;;;;;;25.50;45.30;;;;;;4994848;28;20261;-66
2022/07/14 05:55:22;;;;;;;;;;;25.50;45.30;;;;;;5014346;28;20377;-63
2022/07/14 05:57:48;;;;;;;;;;;25.50;45.30;;;;;;4998381;28;20329;-63
2022/07/14 06:00:15;;;;;;;;;;;25.50;45.20;;;;;;4996117;28;19964;-64
2022/07/14 06:02:41;;;;;;;;;;;25.50;45.20;;;;;;4998544;28;19918;-62
2022/07/14 06:05:07;;;;;;;;;;;25.60;45.20;;;;;;4996319;28;19948;-63
2022/07/14 06:07:32;;;;;;;;;;;25.60;45.20;;;;;;4996233;28;19918;-64
2022/07/14 06:09:58;;;;;;;;;;;25.60;45.10;;;;;;4996931;28;20284;-63
2022/07/14 06:12:24;;;;;;;;;;;25.70;45.10;;;;;;4998561;28;19913;-62
2022/07/14 06:14:49;;;;;;;;;;;25.70;45.10;;;;;;4997555;28;19920;-64
2022/07/14 06:17:15;;;;;;;;;;;25.70;45.10;;;;;;4998591;28;19948;-61
2022/07/14 06:19:40;;;;;;;;;;;25.70;45.00;;;;;;4997993;28;20306;-66
2022/07/14 06:22:07;;;;;;;;;;;25.80;45.10;;;;;;4996099;28;20252;-65
2022/07/14 06:24:35;;;;;;;;;;;25.80;45.10;;;;;;4997544;28;20334;-62
2022/07/14 06:27:01;;;;;;;;;;;25.80;45.00;;;;;;4997907;28;19956;-63
2022/07/14 06:29:26;;;;;;;;;;;25.80;45.00;;;;;;4997142;28;19956;-61
2022/07/14 06:31:55;;;;;;;;;;;25.90;45.00;;;;;;4996743;28;19916;-63
2022/07/14 06:34:21;;;;;;;;;;;25.90;45.00;;;;;;4998538;28;19918;-63
2022/07/14 06:36:46;;;;;;;;;;;25.90;45.00;;;;;;4995727;28;19923;-61
2022/07/14 06:39:12;;;;;;;;;;;26.00;45.00;;;;;;4996931;28;19925;-62
2022/07/14 06:41:37;;;;;;;;;;;25.90;44.90;;;;;;4996003;28;19914;-62
2022/07/14 06:44:04;;;;;;;;;;;26.00;44.90;;;;;;4998116;28;19917;-61
2022/07/14 06:46:32;;;;;;;;;;;26.00;44.90;;;;;;4996909;28;19909;-62
2022/07/14 06:48:57;;;;;;;;;;;26.00;44.90;;;;;;4995318;28;19921;-61
2022/07/14 06:51:23;;;;;;;;;;;26.00;44.90;;;;;;4996017;28;20442;-64
2022/07/14 06:53:49;;;;;;;;;;;26.10;45.00;;;;;;4996807;28;19917;-61
2022/07/14 06:56:15;;;;;;;;;;;26.10;44.90;;;;;;4996728;28;20962;-61
2022/07/14 06:58:40;;;;;;;;;;;26.10;44.80;;;;;;4997531;28;20045;-65
2022/07/14 07:01:06;;;;;;;;;;;26.10;44.80;;;;;;4997057;28;21897;-61
2022/07/14 07:03:31;;;;;;;;;;;26.20;44.90;;;;;;4996710;28;19921;-63
2022/07/14 07:08:41;;;;;;;;;;;26.20;44.80;;;;;;4997188;28;20258;-63
2022/07/14 07:11:06;;;;;;;;;;;26.20;44.80;;;;;;4997300;28;19917;-65
2022/07/14 07:13:32;;;;;;;;;;;26.20;44.80;;;;;;4998245;28;19917;-64
2022/07/14 07:15:57;;;;;;;;;;;26.30;44.80;;;;;;5001656;28;20337;-63
2022/07/14 07:18:23;;;;;;;;;;;26.30;44.80;;;;;;4999135;28;19921;-64
2022/07/14 07:20:48;;;;;;;;;;;26.30;44.80;;;;;;4999102;28;20172;-65
2022/07/14 07:23:14;;;;;;;;;;;26.30;44.80;;;;;;4998448;28;19922;-63
2022/07/14 07:25:39;;;;;;;;;;;26.30;44.80;;;;;;5001220;28;19956;-63
2022/07/14 07:28:05;;;;;;;;;;;26.40;44.80;;;;;;5000145;28;20238;-63
2022/07/14 07:30:30;;;;;;;;;;;26.30;44.70;;;;;;4999655;28;20004;-63
2022/07/14 07:32:56;;;;;;;;;;;26.30;44.70;;;;;;5001337;28;19932;-66
2022/07/14 07:35:21;;;;;;;;;;;26.30;44.70;;;;;;5000727;28;20269;-63
2022/07/14 07:37:47;;;;;;;;;;;26.40;44.80;;;;;;4998447;28;20456;-63
2022/07/14 07:40:13;;;;;;;;;;;26.40;44.80;;;;;;4998389;28;20198;-63
2022/07/14 07:42:38;;;;;;;;;;;26.40;44.70;;;;;;4999076;28;20193;-63
2022/07/14 07:45:04;;;;;;;;;;;26.40;44.60;;;;;;5000817;28;20008;-65
2022/07/14 07:47:30;;;;;;;;;;;26.50;44.70;;;;;;5000245;28;19920;-64
2022/07/14 07:49:56;;;;;;;;;;;26.50;44.70;;;;;;4998352;28;20003;-62
2022/07/14 07:52:21;;;;;;;;;;;26.50;44.60;;;;;;4998093;28;19921;-63
2022/07/14 07:54:47;;;;;;;;;;;26.50;44.60;;;;;;5000618;28;19913;-60
2022/07/14 07:57:13;;;;;;;;;;;26.50;44.70;;;;;;4998842;28;19991;-63
2022/07/14 07:59:39;;;;;;;;;;;26.50;44.60;;;;;;5000403;28;19913;-60
2022/07/14 08:02:04;;;;;;;;;;;26.50;44.70;;;;;;4999623;28;20297;-63
2022/07/14 08:04:31;;;;;;;;;;;26.60;44.80;;;;;;4999596;28;19921;-62
2022/07/14 08:06:56;;;;;;;;;;;26.60;44.80;;;;;;4998205;28;19924;-62
2022/07/14 08:09:22;;;;;;;;;;;26.60;44.80;;;;;;4999019;28;19910;-62
2022/07/14 08:11:47;;;;;;;;;;;26.60;44.80;;;;;;4998935;28;20007;-63
2022/07/14 08:16:57;;;;;;;;;;;26.60;44.70;;;;;;5000121;28;20300;-64
2022/07/14 08:19:22;;;;;;;;;;;26.60;44.80;;;;;;4997186;28;19913;-64
2022/07/14 08:21:48;;;;;;;;;;;26.70;44.90;;;;;;4996420;28;20067;-61
2022/07/14 08:24:14;;;;;;;;;;;26.70;44.90;;;;;;4996981;28;19927;-62
2022/07/14 08:26:42;;;;;;;;;;;26.70;44.90;;;;;;4998607;28;19920;-62
2022/07/14 08:29:08;;;;;;;;;;;26.70;44.90;;;;;;4999245;28;20315;-65
2022/07/14 08:31:33;;;;;;;;;;;26.70;45.00;;;;;;4998333;28;19921;-59
2022/07/14 08:33:59;;;;;;;;;;;26.70;45.00;;;;;;4999033;28;20008;-62
2022/07/14 08:36:24;;;;;;;;;;;26.70;45.00;;;;;;4998587;28;19932;-65
2022/07/14 08:38:50;;;;;;;;;;;26.70;45.50;;;;;;4997228;28;19929;-64
2022/07/14 08:41:15;;;;;;;;;;;26.70;45.50;;;;;;4997306;28;19921;-63
2022/07/14 08:43:42;;;;;;;;;;;26.80;45.50;;;;;;4998686;28;19951;-61
2022/07/14 08:46:07;;;;;;;;;;;26.80;45.80;;;;;;4999502;28;19921;-65
2022/07/14 08:48:33;;;;;;;;;;;26.80;45.70;;;;;;4998857;28;19909;-65
2022/07/14 08:50:59;;;;;;;;;;;26.80;46.30;;;;;;4998866;28;20004;-64
2022/07/14 08:53:26;;;;;;;;;;;26.90;45.80;;;;;;4996186;28;21158;-61
2022/07/14 08:55:51;;;;;;;;;;;26.90;46.00;;;;;;4999563;28;20303;-61
2022/07/14 08:58:17;;;;;;;;;;;26.90;45.90;;;;;;4998247;28;20004;-65
2022/07/14 09:00:42;;;;;;;;;;;26.90;46.20;;;;;;4999535;28;20017;-65
2022/07/14 09:03:08;;;;;;;;;;;26.90;46.00;;;;;;4997898;28;19964;-62
2022/07/14 09:05:33;;;;;;;;;;;26.90;45.90;;;;;;4997701;28;20537;-62
2022/07/14 09:07:59;;;;;;;;;;;27.00;46.00;;;;;;4996141;28;19936;-63
2022/07/14 09:10:25;;;;;;;;;;;27.00;45.80;;;;;;4997657;28;20382;-64
2022/07/14 09:12:51;;;;;;;;;;;27.00;45.80;;;;;;4998917;28;19949;-62
2022/07/14 09:18:11;;;;;;;;;;;27.00;45.80;;;;;;4998597;28;19928;-61
2022/07/14 09:20:37;;;;;;;;;;;27.00;45.80;;;;;;4997206;28;19913;-62
2022/07/14 09:23:04;;;;;;;;;;;27.00;45.90;;;;;;4995852;28;20007;-63
2022/07/14 09:25:31;;;;;;;;;;;27.00;45.80;;;;;;4997226;28;19987;-60
2022/07/14 09:27:56;;;;;;;;;;;27.00;45.80;;;;;;4999211;28;19941;-65
2022/07/14 09:30:23;;;;;;;;;;;27.00;45.70;;;;;;4997235;28;20056;-63
2022/07/14 09:32:56;;;;;;;;;;;27.10;45.80;;;;;;4995374;28;19909;-62
2022/07/14 09:35:22;;;;;;;;;;;27.00;45.70;;;;;;4997545;28;19909;-63
2022/07/14 09:37:48;;;;;;;;;;;27.10;45.70;;;;;;4995565;28;19920;-66
2022/07/14 09:40:20;;;;;;;;;;;27.10;45.80;;;;;;4997822;28;20898;-65
2022/07/14 09:42:51;;;;;;;;;;;27.10;45.90;;;;;;4997861;28;20044;-65
2022/07/14 09:45:18;;;;;;;;;;;27.10;45.70;;;;;;4997828;28;19909;-65
2022/07/14 09:47:50;;;;;;;;;;;27.10;45.60;;;;;;4998936;28;19957;-63
2022/07/14 09:50:36;;;;;;;;;;;27.10;45.60;;;;;;4997282;28;19913;-65
2022/07/14 09:53:13;;;;;;;;;;;27.10;45.60;;;;;;4995457;28;19914;-63
2022/07/14 09:55:44;;;;;;;;;;;27.10;45.60;;;;;;4998947;28;19913;-65
2022/07/14 09:58:10;;;;;;;;;;;27.10;45.60;;;;;;4998528;28;19975;-60
2022/07/14 10:00:35;;;;;;;;;;;27.10;45.60;;;;;;4998099;28;20345;-63
2022/07/14 10:03:04;;;;;;;;;;;27.20;45.80;;;;;;4994727;28;20023;-62
2022/07/14 10:05:34;;;;;;;;;;;27.20;45.80;;;;;;4997508;28;19919;-65
2022/07/14 10:08:02;;;;;;;;;;;27.20;45.80;;;;;;4997308;28;20052;-63
2022/07/14 10:10:31;;;;;;;;;;;27.20;45.70;;;;;;4998067;28;19913;-61
2022/07/14 10:12:56;;;;;;;;;;;27.20;45.70;;;;;;4996690;28;19909;-64
2022/07/14 10:15:22;;;;;;;;;;;27.20;45.70;;;;;;4998231;28;20327;-63
2022/07/14 10:17:47;;;;;;;;;;;27.20;46.10;;;;;;4998736;28;19917;-64
2022/07/14 10:20:15;;;;;;;;;;;27.30;46.40;;;;;;4996488;28;19988;-63
2022/07/14 10:22:41;;;;;;;;;;;27.30;46.30;;;;;;4995918;28;19913;-64
2022/07/14 10:25:07;;;;;;;;;;;27.30;46.40;;;;;;4998737;28;19924;-65
2022/07/14 10:27:34;;;;;;;;;;;27.30;46.80;;;;;;4995312;28;21796;-62
2022/07/14 10:29:59;;;;;;;;;;;27.30;46.80;;;;;;4996238;28;19928;-62
2022/07/14 10:32:43;;;;;;;;;;;27.30;47.40;;;;;;4995548;28;19921;-65
2022/07/14 10:35:21;;;;;;;;;;;27.40;47.10;;;;;;4998025;28;19999;-63
2022/07/14 10:38:05;;;;;;;;;;;27.40;47.50;;;;;;4994826;28;20315;-63
2022/07/14 10:40:46;;;;;;;;;;;27.40;47.00;;;;;;4994332;28;20297;-66
2022/07/14 10:43:14;;;;;;;;;;;27.40;46.70;;;;;;4994107;28;20389;-63
2022/07/14 10:45:47;;;;;;;;;;;27.50;46.50;;;;;;5008637;28;19924;-66
2022/07/14 10:48:29;;;;;;;;;;;27.50;46.30;;;;;;4998381;28;19913;-64
2022/07/14 10:51:17;;;;;;;;;;;27.50;46.10;;;;;;4999341;28;20341;-61
2022/07/14 10:53:58;;;;;;;;;;;27.50;46.00;;;;;;4988808;28;19943;-63
2022/07/14 10:56:25;;;;;;;;;;;27.50;46.20;;;;;;4997577;28;19947;-62
2022/07/14 10:59:10;;;;;;;;;;;27.60;46.70;;;;;;4994785;28;19939;-64
2022/07/14 11:01:36;;;;;;;;;;;27.60;46.80;;;;;;4998750;28;20006;-62
2022/07/14 11:04:01;;;;;;;;;;;27.60;46.80;;;;;;5000005;28;19964;-64
2022/07/14 11:06:27;;;;;;;;;;;27.60;46.80;;;;;;4996473;28;19936;-63
2022/07/14 11:09:11;;;;;;;;;;;27.70;46.90;;;;;;4999025;28;19920;-61
2022/07/14 11:11:37;;;;;;;;;;;27.70;47.10;;;;;;4998083;28;20444;-63
2022/07/14 11:14:04;;;;;;;;;;;27.70;47.50;;;;;;4998571;28;20044;-63
2022/07/14 11:16:46;;;;;;;;;;;27.80;47.60;;;;;;4999310;28;19909;-63
2022/07/14 11:19:24;;;;;;;;;;;27.80;47.50;;;;;;4996858;28;20420;-63
2022/07/14 11:22:08;;;;;;;;;;;27.80;47.50;;;;;;4994905;28;19918;-61
2022/07/14 11:24:33;;;;;;;;;;;27.90;47.40;;;;;;4995691;28;19921;-64
2022/07/14 11:27:19;;;;;;;;;;;27.90;47.90;;;;;;4998526;28;20812;-61
2022/07/14 11:29:45;;;;;;;;;;;27.90;47.50;;;;;;4998517;28;19986;-64
2022/07/14 11:32:27;;;;;;;;;;;28.00;47.50;;;;;;4997313;28;20350;-64
2022/07/14 11:37:54;;;;;;;;;;;28.00;47.40;;;;;;4995490;28;20083;-64
2022/07/14 11:40:38;;;;;;;;;;;28.10;47.40;;;;;;4999041;28;19971;-64
2022/07/14 11:43:22;;;;;;;;;;;28.10;47.40;;;;;;4996099;28;20323;-65
2022/07/14 11:46:08;;;;;;;;;;;28.10;47.20;;;;;;4999208;28;19917;-65
2022/07/14 11:48:35;;;;;;;;;;;28.20;47.30;;;;;;4994952;28;20274;-65
2022/07/14 11:51:10;;;;;;;;;;;28.20;47.20;;;;;;4996557;28;19913;-64
2022/07/14 11:53:37;;;;;;;;;;;28.20;47.20;;;;;;4993243;28;20544;-64
2022/07/14 11:56:04;;;;;;;;;;;28.20;47.10;;;;;;4999661;28;19913;-63
2022/07/14 11:58:30;;;;;;;;;;;28.30;47.20;;;;;;4997557;28;19920;-64
2022/07/14 12:00:56;;;;;;;;;;;28.30;47.00;;;;;;4997847;28;19928;-64
2022/07/14 12:03:23;;;;;;;;;;;28.30;47.30;;;;;;4995841;28;19918;-66
2022/07/14 12:05:52;;;;;;;;;;;28.30;47.10;;;;;;4997807;28;19913;-64
2022/07/14 12:08:22;;;;;;;;;;;28.40;47.00;;;;;;4993903;28;19917;-64
2022/07/14 12:10:49;;;;;;;;;;;28.40;47.10;;;;;;4996224;28;20032;-64
2022/07/14 12:13:14;;;;;;;;;;;28.40;47.10;;;;;;4995041;28;20353;-62
2022/07/14 12:15:40;;;;;;;;;;;28.40;46.90;;;;;;4996602;28;19913;-65
2022/07/14 12:18:06;;;;;;;;;;;28.40;47.00;;;;;;4997025;28;19913;-65
2022/07/14 12:20:41;;;;;;;;;;;28.40;46.80;;;;;;4995922;28;19933;-64
2022/07/14 12:23:07;;;;;;;;;;;28.50;47.20;;;;;;4992059;28;19917;-66
2022/07/14 12:25:33;;;;;;;;;;;28.50;47.10;;;;;;4997170;28;19917;-62
2022/07/14 12:28:00;;;;;;;;;;;28.50;47.00;;;;;;4997438;28;19940;-65
2022/07/14 12:30:41;;;;;;;;;;;28.50;46.90;;;;;;4998351;28;19917;-66
2022/07/14 12:33:06;;;;;;;;;;;28.50;47.40;;;;;;4997253;28;19909;-63
2022/07/14 12:35:32;;;;;;;;;;;28.60;46.90;;;;;;4999116;28;19967;-64
2022/07/14 12:37:57;;;;;;;;;;;28.60;47.10;;;;;;4996324;28;19913;-64
2022/07/14 12:40:23;;;;;;;;;;;28.60;46.20;;;;;;4999847;28;19913;-65
2022/07/14 12:42:49;;;;;;;;;;;28.60;46.00;;;;;;4999120;28;19972;-62
2022/07/14 12:45:14;;;;;;;;;;;28.60;45.70;;;;;;4999245;28;19917;-63
2022/07/14 12:47:47;;;;;;;;;;;28.60;46.00;;;;;;4999186;28;19913;-65
2022/07/14 12:50:38;;;;;;;;;;;28.60;46.80;;;;;;4999091;28;19913;-64
2022/07/14 12:53:07;;;;;;;;;;;28.70;46.70;;;;;;4991519;28;19918;-63
2022/07/14 12:55:37;;;;;;;;;;;28.70;46.70;;;;;;4997551;28;20380;-67
2022/07/14 12:58:06;;;;;;;;;;;28.70;46.80;;;;;;4998395;28;20639;-64
2022/07/14 13:00:32;;;;;;;;;;;28.80;46.90;;;;;;4997380;28;20414;-66
2022/07/14 13:03:06;;;;;;;;;;;28.80;47.20;;;;;;4997260;28;20059;-63
2022/07/14 13:05:32;;;;;;;;;;;28.80;47.30;;;;;;4994655;28;19971;-63
2022/07/14 13:07:57;;;;;;;;;;;28.90;47.30;;;;;;4993814;28;19923;-62
2022/07/14 13:10:26;;;;;;;;;;;28.90;47.60;;;;;;4990995;28;19912;-63
2022/07/14 13:12:52;;;;;;;;;;;28.90;46.50;;;;;;4994711;28;19950;-67
2022/07/14 13:15:23;;;;;;;;;;;28.90;45.70;;;;;;4996324;28;20029;-65
2022/07/14 13:17:48;;;;;;;;;;;28.90;45.80;;;;;;4991712;28;19910;-65
2022/07/14 13:20:32;;;;;;;;;;;28.90;45.60;;;;;;4999976;28;19928;-66
2022/07/14 13:22:58;;;;;;;;;;;28.80;45.40;;;;;;4994218;28;20000;-64
2022/07/14 13:25:23;;;;;;;;;;;28.90;45.50;;;;;;4997847;28;19925;-62
2022/07/14 13:27:49;;;;;;;;;;;28.80;45.40;;;;;;4998036;28;20329;-63
2022/07/14 13:30:14;;;;;;;;;;;28.80;45.40;;;;;;5000337;28;19960;-65
2022/07/14 13:32:40;;;;;;;;;;;28.80;45.50;;;;;;4997177;28;19925;-65
2022/07/14 13:35:06;;;;;;;;;;;28.70;45.30;;;;;;4995604;28;20128;-64
2022/07/14 13:37:31;;;;;;;;;;;28.70;45.30;;;;;;4995109;28;19916;-63
2022/07/14 13:39:57;;;;;;;;;;;28.70;45.40;;;;;;4998560;28;19918;-67
2022/07/14 13:42:22;;;;;;;;;;;28.70;45.30;;;;;;4998633;28;19931;-63
2022/07/14 13:44:47;;;;;;;;;;;28.70;45.30;;;;;;4997040;28;20300;-62
2022/07/14 13:47:13;;;;;;;;;;;28.60;45.30;;;;;;4997743;28;19913;-63
2022/07/14 13:52:23;;;;;;;;;;;28.60;45.30;;;;;;4994443;28;19924;-65
2022/07/14 13:54:48;;;;;;;;;;;28.60;45.40;;;;;;4998157;28;19913;-63
2022/07/14 13:57:14;;;;;;;;;;;28.50;45.30;;;;;;4997051;28;19987;-66
2022/07/14 13:59:39;;;;;;;;;;;28.50;45.30;;;;;;5009374;28;19967;-61
2022/07/14 14:02:05;;;;;;;;;;;28.50;45.30;;;;;;4998030;28;19921;-62
2022/07/14 14:04:30;;;;;;;;;;;28.50;45.30;;;;;;4998533;28;19944;-62
2022/07/14 14:06:56;;;;;;;;;;;28.50;45.40;;;;;;4996717;28;19908;-62
2022/07/14 14:09:27;;;;;;;;;;;28.50;45.40;;;;;;4998033;28;20042;-62
2022/07/14 14:11:53;;;;;;;;;;;28.40;45.40;;;;;;4994382;28;19928;-64
2022/07/14 14:14:18;;;;;;;;;;;28.40;45.40;;;;;;4998028;28;19913;-61
2022/07/14 14:16:44;;;;;;;;;;;28.40;45.40;;;;;;4997063;28;20339;-66
2022/07/14 14:19:09;;;;;;;;;;;28.40;45.40;;;;;;4997439;28;19920;-63
2022/07/14 14:21:35;;;;;;;;;;;28.40;45.40;;;;;;4995075;28;19925;-65
2022/07/14 14:24:00;;;;;;;;;;;28.40;45.40;;;;;;5002666;28;20016;-66
2022/07/14 14:26:26;;;;;;;;;;;28.40;45.50;;;;;;4996690;28;19909;-66
2022/07/14 14:28:51;;;;;;;;;;;28.40;45.50;;;;;;4996310;28;19917;-66
2022/07/14 14:31:17;;;;;;;;;;;28.30;45.40;;;;;;4992974;28;19940;-65
2022/07/14 14:33:42;;;;;;;;;;;28.40;45.50;;;;;;4997114;28;19987;-65
2022/07/14 14:36:08;;;;;;;;;;;28.40;45.50;;;;;;4996233;28;19973;-65
2022/07/14 14:38:34;;;;;;;;;;;28.30;45.50;;;;;;4996644;28;19921;-66